createdAt,value
2019-04-28T00:00:26.281Z,1008.49
2019-04-28T00:01:01.603Z,1008.49
2019-04-28T00:01:36.996Z,1008.47
2019-04-28T00:02:12.310Z,1008.51
2019-04-28T00:02:47.322Z,1008.50
2019-04-28T00:03:22.669Z,1008.48
2019-04-28T00:03:57.849Z,1008.51
2019-04-28T00:04:33.073Z,1008.48
2019-04-28T00:05:08.384Z,1008.48
2019-04-28T00:05:43.785Z,1008.49
2019-04-28T00:06:18.887Z,1008.48
2019-04-28T00:06:54.086Z,1008.52
2019-04-28T00:07:29.369Z,1008.51
2019-04-28T00:08:04.841Z,1008.47
2019-04-28T00:08:40.220Z,1008.47
2019-04-28T00:09:15.848Z,1008.49
2019-04-28T00:09:51.235Z,1008.48
2019-04-28T00:10:26.437Z,1008.50
2019-04-28T00:11:01.907Z,1008.51
2019-04-28T00:11:37.068Z,1008.50
2019-04-28T00:12:12.346Z,1008.48
2019-04-28T00:12:47.468Z,1008.49
2019-04-28T00:13:22.696Z,1008.46
2019-04-28T00:13:57.991Z,1008.49
2019-04-28T00:14:33.275Z,1008.46
2019-04-28T00:15:08.487Z,1008.45
2019-04-28T00:15:43.891Z,1008.46
2019-04-28T00:16:21.004Z,1008.44
2019-04-28T00:16:54.285Z,1008.42
2019-04-28T00:17:30.881Z,1008.42
2019-04-28T00:18:05.187Z,1008.44
2019-04-28T00:18:41.588Z,1008.41
2019-04-28T00:19:16.428Z,1008.44
2019-04-28T00:19:51.840Z,1008.46
2019-04-28T00:20:27.152Z,1008.44
2019-04-28T00:21:02.375Z,1008.43
2019-04-28T00:21:37.857Z,1008.44
2019-04-28T00:22:13.062Z,1008.43
2019-04-28T00:22:48.340Z,1008.41
2019-04-28T00:23:23.790Z,1008.47
2019-04-28T00:23:58.888Z,1008.45
2019-04-28T00:24:34.108Z,1008.39
2019-04-28T00:25:11.421Z,1008.40
2019-04-28T00:25:44.805Z,1008.43
2019-04-28T00:26:21.169Z,1008.45
2019-04-28T00:26:55.696Z,1008.45
2019-04-28T00:27:31.597Z,1008.43
2019-04-28T00:28:06.414Z,1008.47
2019-04-28T00:28:41.768Z,1008.40
2019-04-28T00:29:16.921Z,1008.41
2019-04-28T00:29:52.700Z,1008.46
2019-04-28T00:30:28.016Z,1008.43
2019-04-28T00:31:03.608Z,1008.41
2019-04-28T00:31:39.022Z,1008.44
2019-04-28T00:32:14.320Z,1008.46
2019-04-28T00:32:51.762Z,1008.45
2019-04-28T00:33:25.273Z,1008.41
2019-04-28T00:34:01.340Z,1008.45
2019-04-28T00:34:35.963Z,1008.43
2019-04-28T00:35:11.793Z,1008.42
2019-04-28T00:35:46.682Z,1008.46
2019-04-28T00:36:22.105Z,1008.42
2019-04-28T00:36:57.495Z,1008.41
2019-04-28T00:37:32.900Z,1008.47
2019-04-28T00:38:08.390Z,1008.42
2019-04-28T00:38:44.034Z,1008.48
2019-04-28T00:39:21.206Z,1008.47
2019-04-28T00:39:54.834Z,1008.45
2019-04-28T00:40:31.654Z,1008.45
2019-04-28T00:41:05.829Z,1008.46
2019-04-28T00:41:42.055Z,1008.48
2019-04-28T00:42:16.529Z,1008.50
2019-04-28T00:42:51.924Z,1008.48
2019-04-28T00:43:27.268Z,1008.46
2019-04-28T00:44:02.344Z,1008.43
2019-04-28T00:44:38.049Z,1008.47
2019-04-28T00:45:13.243Z,1008.46
2019-04-28T00:45:48.553Z,1008.43
2019-04-28T00:46:23.632Z,1008.42
2019-04-28T00:46:58.752Z,1008.44
2019-04-28T00:47:34.366Z,1008.43
2019-04-28T00:48:10.951Z,1008.41
2019-04-28T00:48:45.192Z,1008.42
2019-04-28T00:49:21.482Z,1008.44
2019-04-28T00:49:55.819Z,1008.45
2019-04-28T00:50:31.580Z,1008.41
2019-04-28T00:51:06.233Z,1008.42
2019-04-28T00:51:41.747Z,1008.42
2019-04-28T00:52:17.328Z,1008.40
2019-04-28T00:52:52.755Z,1008.39
2019-04-28T00:53:28.271Z,1008.41
2019-04-28T00:54:03.492Z,1008.39
2019-04-28T00:54:38.893Z,1008.40
2019-04-28T00:55:14.056Z,1008.35
2019-04-28T00:55:49.338Z,1008.38
2019-04-28T00:56:24.935Z,1008.39
2019-04-28T00:57:01.473Z,1008.39
2019-04-28T00:57:35.836Z,1008.38
2019-04-28T00:58:11.121Z,1008.41
2019-04-28T00:58:46.568Z,1008.40
2019-04-28T00:59:21.966Z,1008.35
2019-04-28T00:59:58.706Z,1008.39
2019-04-28T01:00:32.571Z,1008.36
2019-04-28T01:01:07.893Z,1008.32
2019-04-28T01:01:42.982Z,1008.36
2019-04-28T01:02:18.293Z,1008.35
2019-04-28T01:02:53.694Z,1008.36
2019-04-28T01:03:29.026Z,1008.38
2019-04-28T01:04:04.603Z,1008.38
2019-04-28T01:04:41.326Z,1008.35
2019-04-28T01:05:15.210Z,1008.33
2019-04-28T01:05:50.862Z,1008.33
2019-04-28T01:06:25.710Z,1008.30
2019-04-28T01:07:01.612Z,1008.35
2019-04-28T01:07:36.540Z,1008.34
2019-04-28T01:08:11.960Z,1008.36
2019-04-28T01:08:47.167Z,1008.36
2019-04-28T01:09:22.702Z,1008.33
2019-04-28T01:09:57.892Z,1008.30
2019-04-28T01:10:33.203Z,1008.34
2019-04-28T01:11:08.422Z,1008.34
2019-04-28T01:11:43.728Z,1008.31
2019-04-28T01:12:20.682Z,1008.31
2019-04-28T01:12:54.136Z,1008.36
2019-04-28T01:13:31.830Z,1008.31
2019-04-28T01:14:05.416Z,1008.32
2019-04-28T01:14:40.986Z,1008.31
2019-04-28T01:15:16.044Z,1008.31
2019-04-28T01:15:51.336Z,1008.29
2019-04-28T01:16:26.977Z,1008.30
2019-04-28T01:17:02.475Z,1008.32
2019-04-28T01:17:39.646Z,1008.30
2019-04-28T01:18:13.281Z,1008.30
2019-04-28T01:18:50.210Z,1008.29
2019-04-28T01:19:24.590Z,1008.31
2019-04-28T01:19:59.853Z,1008.30
2019-04-28T01:20:35.300Z,1008.35
2019-04-28T01:21:10.687Z,1008.33
2019-04-28T01:21:46.108Z,1008.33
2019-04-28T01:22:21.477Z,1008.29
2019-04-28T01:22:56.757Z,1008.31
2019-04-28T01:23:32.217Z,1008.33
2019-04-28T01:24:09.500Z,1008.30
2019-04-28T01:24:43.150Z,1008.31
2019-04-28T01:25:20.164Z,1008.35
2019-04-28T01:25:53.762Z,1008.35
2019-04-28T01:26:29.970Z,1008.31
2019-04-28T01:27:04.567Z,1008.33
2019-04-28T01:27:40.310Z,1008.32
2019-04-28T01:28:15.495Z,1008.35
2019-04-28T01:28:50.805Z,1008.28
2019-04-28T01:29:26.376Z,1008.30
2019-04-28T01:30:08.034Z,1008.32
2019-04-28T01:30:37.086Z,1008.31
2019-04-28T01:31:12.568Z,1008.33
2019-04-28T01:31:49.336Z,1008.30
2019-04-28T01:32:23.288Z,1008.31
2019-04-28T01:32:59.653Z,1008.34
2019-04-28T01:33:34.135Z,1008.33
2019-04-28T01:34:10.329Z,1008.31
2019-04-28T01:34:45.266Z,1008.30
2019-04-28T01:35:21.084Z,1008.35
2019-04-28T01:35:55.966Z,1008.34
2019-04-28T01:36:31.393Z,1008.33
2019-04-28T01:37:06.572Z,1008.33
2019-04-28T01:37:41.705Z,1008.36
2019-04-28T01:38:17.040Z,1008.30
2019-04-28T01:38:52.335Z,1008.28
2019-04-28T01:39:29.592Z,1008.29
2019-04-28T01:40:02.860Z,1008.31
2019-04-28T01:40:38.264Z,1008.29
2019-04-28T01:41:13.559Z,1008.31
2019-04-28T01:41:49.613Z,1008.31
2019-04-28T01:42:24.284Z,1008.33
2019-04-28T01:42:59.839Z,1008.30
2019-04-28T01:43:35.128Z,1008.31
2019-04-28T01:44:10.520Z,1008.38
2019-04-28T01:44:46.134Z,1008.31
2019-04-28T01:45:21.713Z,1008.31
2019-04-28T01:45:57.032Z,1008.32
2019-04-28T01:46:32.134Z,1008.33
2019-04-28T01:47:07.250Z,1008.33
2019-04-28T01:47:42.779Z,1008.38
2019-04-28T01:48:19.773Z,1008.32
2019-04-28T01:48:53.222Z,1008.35
2019-04-28T01:49:29.495Z,1008.37
2019-04-28T01:50:04.035Z,1008.34
2019-04-28T01:50:40.031Z,1008.38
2019-04-28T01:51:14.847Z,1008.36
2019-04-28T01:51:50.275Z,1008.33
2019-04-28T01:52:25.377Z,1008.36
2019-04-28T01:53:01.031Z,1008.34
2019-04-28T01:53:36.528Z,1008.36
2019-04-28T01:54:11.980Z,1008.36
2019-04-28T01:54:47.373Z,1008.36
2019-04-28T01:55:22.689Z,1008.38
2019-04-28T01:55:59.457Z,1008.41
2019-04-28T01:56:33.730Z,1008.36
2019-04-28T01:57:10.095Z,1008.40
2019-04-28T01:57:44.250Z,1008.38
2019-04-28T01:58:20.469Z,1008.39
2019-04-28T01:58:54.875Z,1008.39
2019-04-28T01:59:30.429Z,1008.38
2019-04-28T02:00:19.117Z,1008.42
2019-04-28T02:00:41.278Z,1008.37
2019-04-28T02:01:16.586Z,1008.38
2019-04-28T02:01:51.888Z,1008.41
2019-04-28T02:02:27.111Z,1008.40
2019-04-28T02:03:02.496Z,1008.40
2019-04-28T02:03:37.754Z,1008.41
2019-04-28T02:04:13.333Z,1008.44
2019-04-28T02:04:49.766Z,1008.41
2019-04-28T02:05:23.736Z,1008.38
2019-04-28T02:06:00.129Z,1008.41
2019-04-28T02:06:34.447Z,1008.42
2019-04-28T02:07:11.043Z,1008.44
2019-04-28T02:07:45.066Z,1008.45
2019-04-28T02:08:20.516Z,1008.43
2019-04-28T02:08:55.715Z,1008.47
2019-04-28T02:09:31.027Z,1008.45
2019-04-28T02:10:06.020Z,1008.43
2019-04-28T02:10:41.449Z,1008.47
2019-04-28T02:11:16.842Z,1008.45
2019-04-28T02:11:52.353Z,1008.44
2019-04-28T02:12:27.645Z,1008.43
2019-04-28T02:13:03.067Z,1008.47
2019-04-28T02:13:39.739Z,1008.42
2019-04-28T02:14:13.696Z,1008.44
2019-04-28T02:14:50.291Z,1008.49
2019-04-28T02:15:24.391Z,1008.45
2019-04-28T02:16:00.041Z,1008.42
2019-04-28T02:16:35.106Z,1008.45
2019-04-28T02:17:10.451Z,1008.46
2019-04-28T02:17:45.732Z,1008.48
2019-04-28T02:18:20.947Z,1008.48
2019-04-28T02:18:56.267Z,1008.50
2019-04-28T02:19:33.093Z,1008.48
2019-04-28T02:20:06.870Z,1008.47
2019-04-28T02:20:42.452Z,1008.51
2019-04-28T02:21:19.534Z,1008.52
2019-04-28T02:21:53.681Z,1008.50
2019-04-28T02:22:29.928Z,1008.52
2019-04-28T02:23:04.384Z,1008.50
2019-04-28T02:23:39.720Z,1008.51
2019-04-28T02:24:15.210Z,1008.49
2019-04-28T02:24:50.725Z,1008.51
2019-04-28T02:25:26.116Z,1008.52
2019-04-28T02:26:01.320Z,1008.52
2019-04-28T02:26:36.707Z,1008.52
2019-04-28T02:27:12.217Z,1008.55
2019-04-28T02:27:47.800Z,1008.56
2019-04-28T02:28:23.105Z,1008.52
2019-04-28T02:29:00.233Z,1008.55
2019-04-28T02:29:34.043Z,1008.53
2019-04-28T02:30:11.419Z,1008.56
2019-04-28T02:30:49.174Z,1008.56
2019-04-28T02:31:21.526Z,1008.60
2019-04-28T02:31:55.858Z,1008.55
2019-04-28T02:32:31.354Z,1008.58
2019-04-28T02:33:06.982Z,1008.61
2019-04-28T02:33:42.287Z,1008.56
2019-04-28T02:34:17.361Z,1008.59
2019-04-28T02:34:52.643Z,1008.61
2019-04-28T02:35:27.760Z,1008.62
2019-04-28T02:36:03.049Z,1008.61
2019-04-28T02:36:40.546Z,1008.65
2019-04-28T02:37:13.147Z,1008.61
2019-04-28T02:37:50.373Z,1008.65
2019-04-28T02:38:23.838Z,1008.62
2019-04-28T02:39:00.791Z,1008.64
2019-04-28T02:39:34.575Z,1008.65
2019-04-28T02:40:10.609Z,1008.64
2019-04-28T02:40:45.402Z,1008.69
2019-04-28T02:41:20.867Z,1008.71
2019-04-28T02:41:55.707Z,1008.68
2019-04-28T02:42:31.327Z,1008.71
2019-04-28T02:43:06.728Z,1008.69
2019-04-28T02:43:41.867Z,1008.71
2019-04-28T02:44:20.680Z,1008.72
2019-04-28T02:44:53.313Z,1008.77
2019-04-28T02:45:31.387Z,1008.73
2019-04-28T02:46:03.946Z,1008.72
2019-04-28T02:46:40.757Z,1008.77
2019-04-28T02:47:14.457Z,1008.74
2019-04-28T02:47:52.070Z,1008.75
2019-04-28T02:48:25.152Z,1008.75
2019-04-28T02:49:00.903Z,1008.81
2019-04-28T02:49:35.886Z,1008.79
2019-04-28T02:50:11.506Z,1008.83
2019-04-28T02:50:46.790Z,1008.79
2019-04-28T02:51:21.783Z,1008.82
2019-04-28T02:51:57.508Z,1008.87
2019-04-28T02:52:33.000Z,1008.83
2019-04-28T02:53:10.813Z,1008.83
2019-04-28T02:53:44.334Z,1008.83
2019-04-28T02:54:20.352Z,1008.88
2019-04-28T02:54:54.769Z,1008.84
2019-04-28T02:55:31.608Z,1008.84
2019-04-28T02:56:05.652Z,1008.87
2019-04-28T02:56:43.664Z,1008.87
2019-04-28T02:57:16.549Z,1008.87
2019-04-28T02:57:52.161Z,1008.86
2019-04-28T02:58:27.337Z,1008.87
2019-04-28T02:59:02.675Z,1008.85
2019-04-28T02:59:40.782Z,1008.88
2019-04-28T03:00:13.185Z,1008.88
2019-04-28T03:01:04.942Z,1008.84
2019-04-28T03:01:26.599Z,1008.88
2019-04-28T03:02:00.702Z,1008.86
2019-04-28T03:02:34.806Z,1008.87
2019-04-28T03:03:11.020Z,1008.85
2019-04-28T03:03:45.229Z,1008.86
2019-04-28T03:04:20.537Z,1008.82
2019-04-28T03:04:56.052Z,1008.87
2019-04-28T03:05:33.491Z,1008.88
2019-04-28T03:06:06.879Z,1008.85
2019-04-28T03:06:42.105Z,1008.84
2019-04-28T03:07:17.453Z,1008.85
2019-04-28T03:07:52.847Z,1008.88
2019-04-28T03:08:30.474Z,1008.88
2019-04-28T03:09:03.384Z,1008.86
2019-04-28T03:09:40.384Z,1008.88
2019-04-28T03:10:14.211Z,1008.89
2019-04-28T03:10:50.916Z,1008.88
2019-04-28T03:11:24.403Z,1008.87
2019-04-28T03:12:01.500Z,1008.87
2019-04-28T03:12:35.684Z,1008.89
2019-04-28T03:13:13.238Z,1008.86
2019-04-28T03:13:46.187Z,1008.91
2019-04-28T03:14:21.444Z,1008.89
2019-04-28T03:14:56.837Z,1008.91
2019-04-28T03:15:32.286Z,1008.90
2019-04-28T03:16:07.580Z,1008.85
2019-04-28T03:16:42.804Z,1008.88
2019-04-28T03:17:20.544Z,1008.89
2019-04-28T03:17:53.614Z,1008.89
2019-04-28T03:18:31.390Z,1008.90
2019-04-28T03:19:04.747Z,1008.87
2019-04-28T03:19:41.494Z,1008.90
2019-04-28T03:20:15.671Z,1008.92
2019-04-28T03:20:51.615Z,1008.89
2019-04-28T03:21:26.292Z,1008.92
2019-04-28T03:22:01.683Z,1008.93
2019-04-28T03:22:37.094Z,1008.96
2019-04-28T03:23:12.576Z,1008.97
2019-04-28T03:23:47.914Z,1008.97
2019-04-28T03:24:23.129Z,1008.99
2019-04-28T03:25:00.796Z,1008.94
2019-04-28T03:25:33.837Z,1008.98
2019-04-28T03:26:11.204Z,1008.98
2019-04-28T03:26:44.472Z,1008.98
2019-04-28T03:27:20.496Z,1009.00
2019-04-28T03:27:55.106Z,1008.96
2019-04-28T03:28:33.319Z,1008.96
2019-04-28T03:29:06.212Z,1008.94
2019-04-28T03:29:41.650Z,1008.98
2019-04-28T03:30:17.140Z,1008.99
2019-04-28T03:30:54.016Z,1008.98
2019-04-28T03:31:51.106Z,1009.01
2019-04-28T03:32:18.385Z,1008.98
2019-04-28T03:32:47.315Z,1009.01
2019-04-28T03:33:18.870Z,1008.99
2019-04-28T03:33:54.806Z,1009.01
2019-04-28T03:34:24.909Z,1009.01
2019-04-28T03:35:03.065Z,1009.00
2019-04-28T03:35:35.538Z,1009.04
2019-04-28T03:36:15.381Z,1009.05
2019-04-28T03:36:46.204Z,1009.03
2019-04-28T03:37:24.014Z,1009.01
2019-04-28T03:37:56.804Z,1009.07
2019-04-28T03:38:32.484Z,1009.02
2019-04-28T03:39:10.849Z,1009.06
2019-04-28T03:39:43.216Z,1009.03
2019-04-28T03:40:21.089Z,1009.08
2019-04-28T03:40:54.153Z,1009.03
2019-04-28T03:41:31.036Z,1009.00
2019-04-28T03:42:04.756Z,1009.03
2019-04-28T03:42:41.141Z,1009.00
2019-04-28T03:43:15.537Z,1009.03
2019-04-28T03:43:51.436Z,1009.03
2019-04-28T03:44:26.282Z,1009.06
2019-04-28T03:45:01.716Z,1009.04
2019-04-28T03:45:36.989Z,1009.06
2019-04-28T03:46:12.199Z,1009.05
2019-04-28T03:46:47.385Z,1009.08
2019-04-28T03:47:22.811Z,1009.09
2019-04-28T03:48:00.196Z,1009.12
2019-04-28T03:48:33.967Z,1009.12
2019-04-28T03:49:10.822Z,1009.09
2019-04-28T03:49:44.385Z,1009.12
2019-04-28T03:50:20.194Z,1009.11
2019-04-28T03:50:54.899Z,1009.12
2019-04-28T03:51:30.920Z,1009.12
2019-04-28T03:52:05.757Z,1009.13
2019-04-28T03:52:41.533Z,1009.14
2019-04-28T03:53:16.525Z,1009.14
2019-04-28T03:53:52.131Z,1009.17
2019-04-28T03:54:30.200Z,1009.17
2019-04-28T03:55:03.166Z,1009.14
2019-04-28T03:55:41.336Z,1009.14
2019-04-28T03:56:14.058Z,1009.17
2019-04-28T03:56:50.208Z,1009.13
2019-04-28T03:57:24.652Z,1009.15
2019-04-28T03:58:00.965Z,1009.16
2019-04-28T03:58:35.861Z,1009.16
2019-04-28T03:59:11.227Z,1009.16
2019-04-28T03:59:46.330Z,1009.14
2019-04-28T04:00:21.973Z,1009.17
2019-04-28T04:00:56.852Z,1009.16
2019-04-28T04:01:32.167Z,1009.14
2019-04-28T04:02:07.451Z,1009.22
2019-04-28T04:02:43.074Z,1009.21
2019-04-28T04:03:20.680Z,1009.18
2019-04-28T04:03:53.877Z,1009.17
2019-04-28T04:04:29.104Z,1009.18
2019-04-28T04:05:04.731Z,1009.22
2019-04-28T04:05:40.639Z,1009.22
2019-04-28T04:06:15.121Z,1009.16
2019-04-28T04:06:50.894Z,1009.17
2019-04-28T04:07:25.827Z,1009.21
2019-04-28T04:08:01.527Z,1009.20
2019-04-28T04:08:36.857Z,1009.20
2019-04-28T04:09:12.138Z,1009.18
2019-04-28T04:09:47.659Z,1009.17
2019-04-28T04:10:23.230Z,1009.14
2019-04-28T04:11:00.239Z,1009.19
2019-04-28T04:11:33.836Z,1009.20
2019-04-28T04:12:11.137Z,1009.22
2019-04-28T04:12:44.459Z,1009.22
2019-04-28T04:13:20.103Z,1009.17
2019-04-28T04:13:55.213Z,1009.24
2019-04-28T04:14:31.050Z,1009.22
2019-04-28T04:15:05.846Z,1009.27
2019-04-28T04:15:41.449Z,1009.28
2019-04-28T04:16:16.450Z,1009.26
2019-04-28T04:16:51.769Z,1009.28
2019-04-28T04:17:27.239Z,1009.27
2019-04-28T04:18:02.771Z,1009.29
2019-04-28T04:18:40.484Z,1009.28
2019-04-28T04:19:13.095Z,1009.29
2019-04-28T04:19:50.379Z,1009.33
2019-04-28T04:20:24.405Z,1009.29
2019-04-28T04:21:00.806Z,1009.27
2019-04-28T04:21:35.217Z,1009.30
2019-04-28T04:22:10.294Z,1009.28
2019-04-28T04:22:45.629Z,1009.27
2019-04-28T04:23:23.138Z,1009.26
2019-04-28T04:23:56.327Z,1009.31
2019-04-28T04:24:31.850Z,1009.29
2019-04-28T04:25:09.086Z,1009.26
2019-04-28T04:25:42.248Z,1009.30
2019-04-28T04:26:17.462Z,1009.31
2019-04-28T04:26:52.758Z,1009.31
2019-04-28T04:27:30.686Z,1009.28
2019-04-28T04:28:03.663Z,1009.31
2019-04-28T04:28:41.340Z,1009.32
2019-04-28T04:29:13.791Z,1009.31
2019-04-28T04:29:50.962Z,1009.32
2019-04-28T04:30:24.634Z,1009.32
2019-04-28T04:31:02.733Z,1009.33
2019-04-28T04:31:35.346Z,1009.33
2019-04-28T04:32:20.509Z,1009.34
2019-04-28T04:32:45.866Z,1009.36
2019-04-28T04:33:21.308Z,1009.35
2019-04-28T04:33:56.689Z,1009.34
2019-04-28T04:34:31.914Z,1009.34
2019-04-28T04:35:07.108Z,1009.34
2019-04-28T04:35:43.618Z,1009.30
2019-04-28T04:36:17.807Z,1009.37
2019-04-28T04:36:52.937Z,1009.33
2019-04-28T04:37:30.609Z,1009.38
2019-04-28T04:38:03.738Z,1009.37
2019-04-28T04:38:43.288Z,1009.37
2019-04-28T04:39:14.364Z,1009.37
2019-04-28T04:39:51.413Z,1009.40
2019-04-28T04:40:25.387Z,1009.38
2019-04-28T04:41:01.412Z,1009.39
2019-04-28T04:41:36.304Z,1009.39
2019-04-28T04:42:11.782Z,1009.43
2019-04-28T04:42:47.012Z,1009.39
2019-04-28T04:43:23.351Z,1009.41
2019-04-28T04:43:57.810Z,1009.43
2019-04-28T04:44:33.254Z,1009.44
2019-04-28T04:45:10.528Z,1009.44
2019-04-28T04:45:44.407Z,1009.44
2019-04-28T04:46:22.149Z,1009.44
2019-04-28T04:46:55.427Z,1009.46
2019-04-28T04:47:32.818Z,1009.43
2019-04-28T04:48:05.953Z,1009.49
2019-04-28T04:48:41.057Z,1009.45
2019-04-28T04:49:16.378Z,1009.45
2019-04-28T04:49:51.884Z,1009.48
2019-04-28T04:50:27.076Z,1009.45
2019-04-28T04:51:02.283Z,1009.46
2019-04-28T04:51:37.463Z,1009.43
2019-04-28T04:52:12.776Z,1009.46
2019-04-28T04:52:50.060Z,1009.46
2019-04-28T04:53:23.793Z,1009.45
2019-04-28T04:54:01.007Z,1009.47
2019-04-28T04:54:36.802Z,1009.50
2019-04-28T04:55:11.095Z,1009.50
2019-04-28T04:55:44.737Z,1009.50
2019-04-28T04:56:20.961Z,1009.47
2019-04-28T04:56:55.463Z,1009.52
2019-04-28T04:57:32.560Z,1009.50
2019-04-28T04:58:06.681Z,1009.50
2019-04-28T04:58:41.767Z,1009.50
2019-04-28T04:59:17.088Z,1009.49
2019-04-28T04:59:52.396Z,1009.52
2019-04-28T05:00:27.716Z,1009.52
2019-04-28T05:01:03.405Z,1009.54
2019-04-28T05:01:40.438Z,1009.56
2019-04-28T05:02:26.535Z,1009.55
2019-04-28T05:02:52.928Z,1009.57
2019-04-28T05:03:24.749Z,1009.55
2019-04-28T05:04:00.064Z,1009.56
2019-04-28T05:04:35.252Z,1009.56
2019-04-28T05:05:11.825Z,1009.59
2019-04-28T05:05:46.006Z,1009.60
2019-04-28T05:06:21.226Z,1009.58
2019-04-28T05:06:56.408Z,1009.58
2019-04-28T05:07:31.930Z,1009.59
2019-04-28T05:08:07.113Z,1009.63
2019-04-28T05:08:42.731Z,1009.57
2019-04-28T05:09:19.529Z,1009.59
2019-04-28T05:09:53.271Z,1009.56
2019-04-28T05:10:30.303Z,1009.56
2019-04-28T05:11:03.997Z,1009.57
2019-04-28T05:11:39.975Z,1009.64
2019-04-28T05:12:15.050Z,1009.54
2019-04-28T05:12:51.846Z,1009.58
2019-04-28T05:13:26.564Z,1009.60
2019-04-28T05:14:01.935Z,1009.65
2019-04-28T05:14:37.357Z,1009.58
2019-04-28T05:15:12.680Z,1009.59
2019-04-28T05:15:48.000Z,1009.57
2019-04-28T05:16:23.273Z,1009.57
2019-04-28T05:17:00.679Z,1009.62
2019-04-28T05:17:33.962Z,1009.57
2019-04-28T05:18:10.130Z,1009.60
2019-04-28T05:18:45.066Z,1009.62
2019-04-28T05:19:20.376Z,1009.59
2019-04-28T05:19:55.900Z,1009.66
2019-04-28T05:20:31.323Z,1009.64
2019-04-28T05:21:06.815Z,1009.64
2019-04-28T05:21:42.247Z,1009.63
2019-04-28T05:22:17.532Z,1009.67
2019-04-28T05:22:52.752Z,1009.62
2019-04-28T05:23:29.722Z,1009.67
2019-04-28T05:24:03.762Z,1009.66
2019-04-28T05:24:40.279Z,1009.62
2019-04-28T05:25:14.382Z,1009.64
2019-04-28T05:25:49.751Z,1009.67
2019-04-28T05:26:24.886Z,1009.66
2019-04-28T05:27:00.084Z,1009.73
2019-04-28T05:27:35.404Z,1009.67
2019-04-28T05:28:10.595Z,1009.65
2019-04-28T05:28:51.506Z,1009.68
2019-04-28T05:29:26.521Z,1009.64
2019-04-28T05:30:01.451Z,1009.65
2019-04-28T05:30:34.776Z,1009.70
2019-04-28T05:31:11.306Z,1009.70
2019-04-28T05:31:43.198Z,1009.68
2019-04-28T05:32:20.416Z,1009.71
2019-04-28T05:32:56.244Z,1009.72
2019-04-28T05:33:33.770Z,1009.74
2019-04-28T05:34:08.018Z,1009.71
2019-04-28T05:34:46.518Z,1009.72
2019-04-28T05:35:17.627Z,1009.74
2019-04-28T05:35:54.556Z,1009.73
2019-04-28T05:36:26.427Z,1009.74
2019-04-28T05:37:01.939Z,1009.72
2019-04-28T05:37:37.245Z,1009.75
2019-04-28T05:38:12.585Z,1009.76
2019-04-28T05:38:49.563Z,1009.78
2019-04-28T05:39:23.335Z,1009.78
2019-04-28T05:40:00.652Z,1009.78
2019-04-28T05:40:34.051Z,1009.76
2019-04-28T05:41:10.553Z,1009.81
2019-04-28T05:41:44.681Z,1009.82
2019-04-28T05:42:20.070Z,1009.83
2019-04-28T05:42:55.389Z,1009.81
2019-04-28T05:43:30.888Z,1009.82
2019-04-28T05:44:06.502Z,1009.83
2019-04-28T05:44:42.128Z,1009.79
2019-04-28T05:45:17.755Z,1009.83
2019-04-28T05:45:53.070Z,1009.81
2019-04-28T05:46:29.931Z,1009.87
2019-04-28T05:47:03.880Z,1009.84
2019-04-28T05:47:40.759Z,1009.86
2019-04-28T05:48:14.506Z,1009.84
2019-04-28T05:48:51.198Z,1009.86
2019-04-28T05:49:24.948Z,1009.88
2019-04-28T05:50:00.507Z,1009.87
2019-04-28T05:50:35.601Z,1009.89
2019-04-28T05:51:11.118Z,1009.92
2019-04-28T05:51:46.505Z,1009.91
2019-04-28T05:52:22.113Z,1009.91
2019-04-28T05:52:57.704Z,1009.94
2019-04-28T05:53:33.023Z,1009.91
2019-04-28T05:54:09.757Z,1009.92
2019-04-28T05:54:44.185Z,1009.93
2019-04-28T05:55:20.420Z,1009.96
2019-04-28T05:55:55.109Z,1009.96
2019-04-28T05:56:30.514Z,1009.96
2019-04-28T05:57:05.755Z,1010.02
2019-04-28T05:57:40.738Z,1009.99
2019-04-28T05:58:16.253Z,1009.94
2019-04-28T05:58:51.645Z,1009.96
2019-04-28T05:59:26.968Z,1009.98
2019-04-28T06:00:03.559Z,1010.00
2019-04-28T06:00:37.382Z,1009.98
2019-04-28T06:01:12.875Z,1010.00
2019-04-28T06:01:50.472Z,1009.99
2019-04-28T06:02:23.772Z,1009.99
2019-04-28T06:03:00.582Z,1010.00
2019-04-28T06:03:34.389Z,1010.02
2019-04-28T06:04:11.145Z,1010.00
2019-04-28T06:04:45.150Z,1010.02
2019-04-28T06:05:20.378Z,1010.00
2019-04-28T06:05:57.076Z,1010.00
2019-04-28T06:06:31.070Z,1010.01
2019-04-28T06:07:06.366Z,1010.01
2019-04-28T06:07:41.986Z,1010.02
2019-04-28T06:08:17.176Z,1010.06
2019-04-28T06:08:52.521Z,1010.05
2019-04-28T06:09:29.429Z,1010.00
2019-04-28T06:10:03.444Z,1010.02
2019-04-28T06:10:39.943Z,1009.98
2019-04-28T06:11:14.230Z,1010.02
2019-04-28T06:11:49.730Z,1009.97
2019-04-28T06:12:25.180Z,1009.99
2019-04-28T06:13:00.578Z,1010.00
2019-04-28T06:13:35.917Z,1009.98
2019-04-28T06:14:11.119Z,1010.02
2019-04-28T06:14:46.589Z,1009.96
2019-04-28T06:15:21.896Z,1009.98
2019-04-28T06:15:57.212Z,1010.00
2019-04-28T06:16:32.809Z,1010.02
2019-04-28T06:17:08.030Z,1009.99
2019-04-28T06:17:43.470Z,1009.96
2019-04-28T06:18:20.482Z,1009.99
2019-04-28T06:18:54.347Z,1010.06
2019-04-28T06:19:30.163Z,1010.00
2019-04-28T06:20:05.283Z,1010.00
2019-04-28T06:20:40.658Z,1010.03
2019-04-28T06:21:15.696Z,1010.00
2019-04-28T06:21:50.961Z,1010.01
2019-04-28T06:22:26.261Z,1010.01
2019-04-28T06:23:01.384Z,1010.03
2019-04-28T06:23:36.568Z,1010.01
2019-04-28T06:24:12.013Z,1010.01
2019-04-28T06:24:47.451Z,1010.02
2019-04-28T06:25:22.774Z,1010.05
2019-04-28T06:25:58.174Z,1010.05
2019-04-28T06:26:33.798Z,1010.04
2019-04-28T06:27:08.898Z,1010.06
2019-04-28T06:27:44.434Z,1010.06
2019-04-28T06:28:19.733Z,1010.09
2019-04-28T06:28:54.987Z,1010.06
2019-04-28T06:29:30.371Z,1010.10
2019-04-28T06:30:05.509Z,1010.13
2019-04-28T06:30:41.099Z,1010.14
2019-04-28T06:31:16.621Z,1010.12
2019-04-28T06:31:52.003Z,1010.13
2019-04-28T06:32:27.421Z,1010.13
2019-04-28T06:33:08.116Z,1010.10
2019-04-28T06:33:38.153Z,1010.14
2019-04-28T06:34:13.941Z,1010.15
2019-04-28T06:34:49.492Z,1010.14
2019-04-28T06:35:24.812Z,1010.18
2019-04-28T06:36:00.141Z,1010.21
2019-04-28T06:36:35.921Z,1010.18
2019-04-28T06:37:11.244Z,1010.22
2019-04-28T06:37:46.723Z,1010.21
2019-04-28T06:38:22.137Z,1010.22
2019-04-28T06:38:57.637Z,1010.23
2019-04-28T06:39:32.970Z,1010.24
2019-04-28T06:40:08.391Z,1010.27
2019-04-28T06:40:43.740Z,1010.27
2019-04-28T06:41:19.408Z,1010.27
2019-04-28T06:41:54.648Z,1010.30
2019-04-28T06:42:29.839Z,1010.28
2019-04-28T06:43:05.145Z,1010.32
2019-04-28T06:43:40.273Z,1010.29
2019-04-28T06:44:15.893Z,1010.33
2019-04-28T06:44:51.123Z,1010.31
2019-04-28T06:45:26.372Z,1010.32
2019-04-28T06:46:01.566Z,1010.36
2019-04-28T06:46:36.779Z,1010.34
2019-04-28T06:47:12.180Z,1010.39
2019-04-28T06:47:47.498Z,1010.34
2019-04-28T06:48:23.051Z,1010.42
2019-04-28T06:48:58.487Z,1010.43
2019-04-28T06:49:34.175Z,1010.37
2019-04-28T06:50:09.693Z,1010.40
2019-04-28T06:50:45.128Z,1010.45
2019-04-28T06:51:20.856Z,1010.45
2019-04-28T06:51:56.147Z,1010.44
2019-04-28T06:52:31.255Z,1010.46
2019-04-28T06:53:06.770Z,1010.44
2019-04-28T06:53:42.194Z,1010.41
2019-04-28T06:54:17.399Z,1010.41
2019-04-28T06:54:52.838Z,1010.45
2019-04-28T06:55:28.157Z,1010.45
2019-04-28T06:56:03.286Z,1010.43
2019-04-28T06:56:42.597Z,1010.45
2019-04-28T06:57:18.024Z,1010.45
2019-04-28T06:57:53.516Z,1010.47
2019-04-28T06:58:28.755Z,1010.43
2019-04-28T06:59:04.039Z,1010.46
2019-04-28T06:59:39.351Z,1010.45
2019-04-28T07:00:14.771Z,1010.49
2019-04-28T07:00:50.318Z,1010.49
2019-04-28T07:01:25.621Z,1010.44
2019-04-28T07:02:01.354Z,1010.48
2019-04-28T07:02:36.636Z,1010.49
2019-04-28T07:03:22.629Z,1010.49
2019-04-28T07:03:47.852Z,1010.50
2019-04-28T07:04:23.273Z,1010.49
2019-04-28T07:05:02.191Z,1010.50
2019-04-28T07:05:34.365Z,1010.48
2019-04-28T07:06:09.978Z,1010.52
2019-04-28T07:06:45.653Z,1010.54
2019-04-28T07:07:20.857Z,1010.51
2019-04-28T07:07:56.182Z,1010.55